Time;durP1;ratioP1;P1;durP2;ratioP2;P2;SDS_P1;SDS_P2;PMS_P1;PMS_P2;Temp;Humidity;BMP_temperature;BMP_pressure;BME280_temperature;BME280_humidity;BME280_pressure;Samples;Min_cycle;Max_cycle;Signal;HPM_P1;HPM_P2
2022/12/31 00:01:57;;;;;;;3.60;2.13;;;11.80;99.90;;;;;;4917811;29;20075;-85
2022/12/31 00:04:22;;;;;;;3.63;1.83;;;12.80;99.90;;;;;;4912094;29;20048;-83
2022/12/31 00:06:48;;;;;;;4.88;2.67;;;11.70;99.90;;;;;;4919497;29;20103;-84
2022/12/31 00:09:14;;;;;;;8.35;3.70;;;11.70;99.90;;;;;;4899973;29;20589;-84
2022/12/31 00:11:39;;;;;;;6.03;3.42;;;11.70;99.90;;;;;;4918940;29;20487;-85
2022/12/31 00:14:05;;;;;;;4.38;3.72;;;11.70;99.90;;;;;;4912354;29;20040;-85
2022/12/31 00:16:37;;;;;;;6.25;4.15;;;11.80;99.90;;;;;;4915680;29;20040;-84
2022/12/31 00:19:07;;;;;;;5.32;3.63;;;11.70;99.90;;;;;;4899549;29;20058;-85
2022/12/31 00:21:33;;;;;;;5.90;4.50;;;11.90;99.90;;;;;;4920866;29;20035;-85
2022/12/31 00:24:00;;;;;;;5.22;3.75;;;11.60;99.90;;;;;;4908703;29;20048;-84
2022/12/31 00:26:28;;;;;;;5.93;3.72;;;12.20;99.90;;;;;;4915341;29;21230;-85
2022/12/31 00:28:55;;;;;;;5.72;3.33;;;11.60;99.90;;;;;;4917735;29;20060;-84
2022/12/31 00:31:35;;;;;;;4.95;3.80;;;11.70;99.90;;;;;;4913195;29;20048;-85
2022/12/31 00:34:02;;;;;;;4.18;3.65;;;11.70;99.90;;;;;;4935399;29;20139;-85
2022/12/31 00:36:31;;;;;;;6.22;4.63;;;11.20;99.90;;;;;;4916209;29;20380;-85
2022/12/31 00:38:58;;;;;;;6.28;4.60;;;11.70;99.90;;;;;;4917672;29;20128;-85
2022/12/31 00:41:25;;;;;;;6.38;5.13;;;11.70;99.90;;;;;;4917274;29;20109;-85
2022/12/31 00:43:51;;;;;;;6.40;4.95;;;11.70;99.90;;;;;;4932587;29;20059;-85
2022/12/31 00:46:18;;;;;;;9.98;5.05;;;11.90;99.90;;;;;;4916004;29;20399;-85
2022/12/31 00:48:44;;;;;;;8.07;5.20;;;11.70;99.90;;;;;;4912688;29;20054;-85
2022/12/31 00:51:11;;;;;;;10.40;5.90;;;12.00;99.90;;;;;;4916512;29;20058;-85
2022/12/31 00:53:45;;;;;;;6.47;4.78;;;11.70;99.90;;;;;;4911293;29;20072;-85
2022/12/31 00:56:12;;;;;;;6.70;4.57;;;11.70;99.90;;;;;;4898998;29;21108;-84
2022/12/31 00:58:38;;;;;;;9.20;4.85;;;11.90;99.90;;;;;;4919101;29;20048;-85
2022/12/31 01:01:22;;;;;;;7.55;5.18;;;11.60;99.90;;;;;;4915429;29;20044;-85
2022/12/31 01:03:50;;;;;;;7.00;4.43;;;11.80;99.90;;;;;;4898320;29;20048;-85
2022/12/31 01:06:17;;;;;;;8.57;4.15;;;11.60;99.90;;;;;;4914000;29;20056;-84
2022/12/31 01:08:43;;;;;;;7.60;4.40;;;11.60;99.90;;;;;;4917076;29;20051;-85
2022/12/31 01:11:23;;;;;;;4.90;3.72;;;11.60;99.90;;;;;;4933518;29;20195;-85
2022/12/31 01:14:01;;;;;;;12.38;5.45;;;12.20;99.90;;;;;;4932317;29;20515;-85
2022/12/31 01:16:43;;;;;;;8.23;4.63;;;11.60;99.90;;;;;;4901346;29;20131;-84
2022/12/31 01:19:11;;;;;;;7.03;4.03;;;11.70;99.90;;;;;;4919897;29;20561;-85
2022/12/31 01:21:39;;;;;;;8.38;4.75;;;11.60;99.90;;;;;;4917088;29;20051;-85
2022/12/31 01:24:05;;;;;;;7.35;3.60;;;11.60;99.90;;;;;;4914817;29;20130;-86
2022/12/31 01:26:31;;;;;;;6.72;3.85;;;11.70;99.90;;;;;;4920002;29;20099;-85
2022/12/31 01:28:56;;;;;;;11.38;5.15;;;11.60;99.90;;;;;;4916955;29;20040;-85
2022/12/31 01:31:23;;;;;;;7.32;3.78;;;11.60;99.90;;;;;;4917887;29;20040;-86
2022/12/31 01:33:56;;;;;;;5.47;4.30;;;11.70;99.90;;;;;;4910622;29;20107;-85
2022/12/31 01:36:32;;;;;;;9.73;4.63;;;11.60;99.90;;;;;;4917112;29;20055;-85
2022/12/31 01:38:59;;;;;;;;;;;11.40;99.90;;;;;;4931747;29;20071;-84
2022/12/31 01:41:30;;;;;;;6.70;3.65;;;11.60;99.90;;;;;;4912794;29;19930;-85
2022/12/31 01:43:59;;;;;;;6.82;4.18;;;11.50;99.90;;;;;;4915320;29;20040;-85
2022/12/31 01:46:37;;;;;;;9.02;3.95;;;11.80;99.90;;;;;;4916151;29;20048;-84
2022/12/31 01:49:19;;;;;;;9.13;3.60;;;11.60;99.90;;;;;;4894645;29;20483;-84
2022/12/31 01:52:03;;;;;;;5.97;3.40;;;11.60;99.90;;;;;;4929544;29;20086;-85
2022/12/31 01:54:32;;;;;;;5.43;3.47;;;11.50;99.90;;;;;;4915809;29;20047;-84
2022/12/31 01:57:02;;;;;;;6.03;3.03;;;11.50;99.90;;;;;;4916704;29;20799;-85
2022/12/31 01:59:29;;;;;;;8.38;3.10;;;11.60;99.90;;;;;;4918781;29;20546;-85
2022/12/31 02:01:55;;;;;;;8.98;3.60;;;11.50;99.90;;;;;;4916735;29;20071;-85
2022/12/31 02:04:23;;;;;;;5.10;2.90;;;11.50;99.90;;;;;;4933617;29;20044;-85
2022/12/31 02:07:01;;;;;;;5.97;3.00;;;12.40;99.90;;;;;;4915175;29;20126;-84
2022/12/31 02:09:31;;;;;;;5.47;2.50;;;11.60;99.90;;;;;;4899818;29;20056;-85
2022/12/31 02:11:57;;;;;;;5.97;2.22;;;11.70;99.90;;;;;;4920045;29;20050;-84
2022/12/31 02:14:32;;;;;;;8.07;2.58;;;11.60;99.90;;;;;;4921207;29;20047;-85
2022/12/31 02:17:17;;;;;;;5.47;2.58;;;11.40;99.90;;;;;;4920707;29;20098;-85
2022/12/31 02:20:05;;;;;;;3.78;2.30;;;11.50;99.90;;;;;;4917903;29;20048;-85
2022/12/31 02:22:55;;;;;;;6.07;2.47;;;11.50;99.90;;;;;;4917458;29;20044;-85
2022/12/31 02:25:51;;;;;;;4.63;2.28;;;11.40;99.90;;;;;;4936121;29;20123;-84
2022/12/31 02:28:35;;;;;;;6.97;2.38;;;11.40;99.90;;;;;;4918592;29;20036;-85
2022/12/31 02:31:10;;;;;;;4.60;2.30;;;11.40;99.90;;;;;;4917302;29;20067;-85
2022/12/31 02:33:44;;;;;;;5.50;2.20;;;11.40;99.90;;;;;;4899004;29;20491;-84
2022/12/31 02:36:16;;;;;;;4.95;2.35;;;11.30;99.90;;;;;;4915864;29;20040;-84
2022/12/31 02:38:45;;;;;;;3.97;1.70;;;11.30;99.90;;;;;;4918262;29;20399;-85
2022/12/31 02:41:48;;;;;;;6.82;1.63;;;12.20;99.90;;;;;;4917517;29;20047;-84
2022/12/31 02:43:59;;;;;;;3.40;1.40;;;11.30;99.90;;;;;;4931195;29;20119;-85
2022/12/31 02:46:42;;;;;;;4.15;1.33;;;12.00;99.90;;;;;;4932554;29;20462;-84
2022/12/31 02:49:18;;;;;;;4.07;0.95;;;11.40;99.90;;;;;;4915148;29;20058;-84
2022/12/31 02:51:53;;;;;;;;;;;11.30;99.90;;;;;;4923031;29;20044;-85
2022/12/31 02:54:38;;;;;;;3.95;0.88;;;11.20;99.90;;;;;;4918126;29;20008;-85
2022/12/31 02:57:08;;;;;;;2.95;0.40;;;11.20;99.90;;;;;;4919069;29;20044;-85
2022/12/31 03:02:40;;;;;;;3.15;0.20;;;11.30;99.90;;;;;;4917766;29;20047;-85
2022/12/31 03:05:07;;;;;;;2.70;0.40;;;11.30;99.90;;;;;;4899717;29;20115;-85
2022/12/31 03:07:33;;;;;;;1.27;0.20;;;11.10;99.90;;;;;;4896995;29;20484;-85
2022/12/31 03:10:00;;;;;;;1.38;0.30;;;11.10;99.90;;;;;;4912929;29;20094;-85
2022/12/31 03:12:47;;;;;;;3.10;0.30;;;11.10;99.90;;;;;;4913762;29;20103;-85
2022/12/31 03:15:31;;;;;;;2.60;0.50;;;11.00;99.90;;;;;;4913625;29;20092;-85
2022/12/31 03:18:15;;;;;;;1.85;0.30;;;11.00;99.90;;;;;;4917008;29;20088;-85
2022/12/31 03:23:35;;;;;;;2.65;0.80;;;10.90;99.90;;;;;;4909916;29;20052;-85
2022/12/31 03:26:11;;;;;;;6.85;0.30;;;10.90;99.90;;;;;;4917169;29;20032;-85
2022/12/31 03:28:39;;;;;;;2.30;0.20;;;10.80;99.90;;;;;;4918016;29;20036;-85
2022/12/31 03:31:05;;;;;;;4.35;0.30;;;10.90;99.90;;;;;;4903521;29;20453;-85
2022/12/31 03:33:39;;;;;;;2.15;0.30;;;10.90;99.90;;;;;;4903740;29;20078;-85
2022/12/31 03:36:11;;;;;;;3.22;0.45;;;10.80;99.90;;;;;;4900019;29;20048;-85
2022/12/31 03:38:37;;;;;;;3.35;0.30;;;10.80;99.90;;;;;;4901401;29;20047;-85
2022/12/31 03:41:03;;;;;;;2.95;0.40;;;10.80;99.90;;;;;;4928968;29;20047;-85
2022/12/31 03:43:28;;;;;;;2.95;0.30;;;10.80;99.90;;;;;;4912063;29;20392;-85
2022/12/31 03:45:57;;;;;;;3.90;0.50;;;10.80;99.90;;;;;;4914882;29;20043;-85
2022/12/31 03:48:23;;;;;;;4.60;0.68;;;11.00;99.90;;;;;;4917837;29;20044;-84
2022/12/31 03:50:49;;;;;;;4.18;0.75;;;10.80;99.90;;;;;;4901127;29;20462;-85
2022/12/31 03:53:15;;;;;;;3.20;1.10;;;10.80;99.90;;;;;;4916884;29;20040;-85
2022/12/31 03:55:41;;;;;;;6.22;1.27;;;10.80;99.90;;;;;;4922275;29;20048;-85
2022/12/31 03:58:07;;;;;;;5.45;1.38;;;10.80;99.90;;;;;;4910436;29;20438;-85
2022/12/31 04:00:40;;;;;;;5.03;1.33;;;11.50;99.90;;;;;;4904434;29;20032;-85
2022/12/31 04:03:06;;;;;;;3.90;1.30;;;10.80;99.90;;;;;;4917618;29;20044;-85
2022/12/31 04:05:32;;;;;;;8.50;2.67;;;10.90;99.90;;;;;;4900532;29;20042;-86
2022/12/31 04:07:58;;;;;;;5.55;2.13;;;11.30;99.90;;;;;;4916243;29;20076;-85
2022/12/31 04:10:24;;;;;;;3.78;1.77;;;11.80;99.90;;;;;;4905211;29;20102;-85
2022/12/31 04:12:52;;;;;;;6.88;2.28;;;11.00;99.90;;;;;;4925712;29;20128;-85
2022/12/31 04:15:20;;;;;;;8.40;2.90;;;11.30;99.90;;;;;;4914064;29;20044;-85
2022/12/31 04:17:46;;;;;;;6.97;2.83;;;11.00;99.90;;;;;;4915135;29;20039;-85
2022/12/31 04:20:12;;;;;;;4.63;2.13;;;11.40;99.90;;;;;;4917181;29;20039;-85
2022/12/31 04:22:38;;;;;;;6.85;2.72;;;11.80;99.90;;;;;;4900522;29;20044;-85
2022/12/31 04:25:10;;;;;;;6.63;2.60;;;11.00;99.90;;;;;;4917085;29;20044;-85
2022/12/31 04:27:40;;;;;;;8.40;2.78;;;11.00;99.90;;;;;;4915796;29;20043;-85
2022/12/31 04:30:06;;;;;;;5.55;2.60;;;11.00;99.90;;;;;;4914481;29;20047;-85
2022/12/31 04:32:32;;;;;;;7.50;2.80;;;11.00;99.90;;;;;;4901279;29;20087;-85
2022/12/31 04:34:58;;;;;;;3.55;2.30;;;11.00;99.90;;;;;;4896508;29;20076;-85
2022/12/31 04:37:23;;;;;;;7.20;2.58;;;11.00;99.90;;;;;;4915020;29;20047;-85
2022/12/31 04:39:52;;;;;;;4.63;2.70;;;11.00;99.90;;;;;;4912475;29;20086;-85
2022/12/31 04:42:18;;;;;;;5.65;2.20;;;11.00;99.90;;;;;;4907280;29;20047;-86
2022/12/31 04:44:43;;;;;;;8.13;2.40;;;11.90;99.90;;;;;;4912720;29;20051;-85
2022/12/31 04:47:09;;;;;;;5.40;2.05;;;11.20;99.90;;;;;;4916757;29;20040;-86
2022/12/31 04:49:34;;;;;;;5.32;2.28;;;11.10;99.90;;;;;;4899799;29;20138;-86
2022/12/31 04:52:00;;;;;;;5.47;1.95;;;11.00;99.90;;;;;;4915747;29;20688;-85
2022/12/31 04:54:26;;;;;;;6.43;2.22;;;11.80;99.90;;;;;;4904552;29;20040;-85
2022/12/31 04:56:51;;;;;;;5.47;1.52;;;11.00;99.90;;;;;;4921238;29;20403;-86
2022/12/31 04:59:17;;;;;;;5.18;2.15;;;11.70;99.90;;;;;;4913227;29;20688;-85
2022/12/31 05:01:43;;;;;;;4.85;1.70;;;11.00;99.90;;;;;;4914943;29;20131;-85
2022/12/31 05:04:08;;;;;;;6.05;1.50;;;11.80;99.90;;;;;;4915343;29;20036;-86
2022/12/31 05:06:34;;;;;;;4.15;1.38;;;11.30;99.90;;;;;;4915616;29;20531;-86
2022/12/31 05:08:59;;;;;;;6.65;1.75;;;10.90;99.90;;;;;;4921621;29;20040;-85
2022/12/31 05:11:25;;;;;;;7.22;2.05;;;11.00;99.90;;;;;;4914157;29;20063;-86
2022/12/31 05:13:54;;;;;;;8.27;2.80;;;11.00;99.90;;;;;;4916518;29;20415;-85
2022/12/31 05:16:19;;;;;;;4.68;2.78;;;11.00;99.90;;;;;;4911364;29;20070;-86
2022/12/31 05:18:45;;;;;;;5.70;2.90;;;11.50;99.90;;;;;;4915273;29;20636;-85
2022/12/31 05:21:17;;;;;;;5.13;2.70;;;10.90;99.90;;;;;;4917660;29;20542;-85
2022/12/31 05:23:43;;;;;;;6.25;3.72;;;11.10;99.90;;;;;;4910796;29;21048;-85
2022/12/31 05:26:09;;;;;;;7.22;3.00;;;10.90;99.90;;;;;;4914960;29;20044;-85
2022/12/31 05:28:34;;;;;;;6.72;3.03;;;11.00;99.90;;;;;;4916416;29;20040;-85
2022/12/31 05:31:00;;;;;;;6.03;2.70;;;11.00;99.90;;;;;;4918512;29;20036;-85
2022/12/31 05:33:26;;;;;;;3.80;2.45;;;11.00;99.90;;;;;;4900144;29;20063;-85
2022/12/31 05:35:51;;;;;;;6.88;2.78;;;11.00;99.90;;;;;;4914529;29;20047;-85
2022/12/31 05:38:17;;;;;;;6.90;3.20;;;11.00;99.90;;;;;;4909222;29;20040;-85
2022/12/31 05:40:45;;;;;;;4.60;2.80;;;11.00;99.90;;;;;;4917106;29;20418;-85
2022/12/31 05:43:11;;;;;;;4.68;2.85;;;11.30;99.90;;;;;;4915113;29;20498;-84
2022/12/31 05:45:37;;;;;;;6.72;2.72;;;11.60;99.90;;;;;;4914195;29;20079;-85
2022/12/31 05:48:02;;;;;;;3.80;2.60;;;11.00;99.90;;;;;;4916309;29;20070;-85
2022/12/31 05:50:28;;;;;;;3.40;2.08;;;11.10;99.90;;;;;;4915193;29;20349;-85
2022/12/31 05:52:54;;;;;;;5.55;2.33;;;11.10;99.90;;;;;;4899016;29;20542;-85
2022/12/31 05:55:22;;;;;;;3.55;2.00;;;12.00;99.90;;;;;;4911496;29;20049;-86
2022/12/31 05:57:51;;;;;;;3.38;1.73;;;11.60;99.90;;;;;;4900082;29;20081;-84
2022/12/31 06:00:16;;;;;;;4.88;1.85;;;11.10;99.90;;;;;;4914582;29;20131;-85
2022/12/31 06:02:42;;;;;;;8.18;2.85;;;11.80;99.90;;;;;;4895983;29;20049;-85
2022/12/31 06:05:11;;;;;;;3.97;1.85;;;11.00;99.90;;;;;;4897613;29;20043;-85
2022/12/31 06:07:36;;;;;;;4.70;2.33;;;11.10;99.90;;;;;;4907684;29;20048;-85
2022/12/31 06:10:03;;;;;;;5.95;1.98;;;11.00;99.90;;;;;;4914519;29;20054;-85
2022/12/31 06:12:29;;;;;;;5.43;2.17;;;11.00;99.90;;;;;;4914720;29;20099;-85
2022/12/31 06:14:54;;;;;;;4.95;1.92;;;11.00;99.90;;;;;;4898744;29;20044;-86
2022/12/31 06:17:21;;;;;;;2.83;1.30;;;11.00;99.90;;;;;;4914878;29;20039;-85
2022/12/31 06:19:48;;;;;;;3.60;1.40;;;11.30;99.90;;;;;;4915334;29;20376;-85
2022/12/31 06:22:14;;;;;;;3.88;1.58;;;11.40;99.90;;;;;;4918023;29;20044;-85
2022/12/31 06:24:42;;;;;;;3.85;1.52;;;11.00;99.90;;;;;;4915444;29;20036;-85
2022/12/31 06:27:07;;;;;;;4.28;1.95;;;11.00;99.90;;;;;;4899473;29;20459;-85
2022/12/31 06:29:36;;;;;;;3.33;1.60;;;11.00;99.90;;;;;;4914424;29;20083;-86
2022/12/31 06:32:04;;;;;;;4.10;1.80;;;11.00;99.90;;;;;;4930705;29;20044;-85
2022/12/31 06:34:29;;;;;;;4.82;2.30;;;11.30;99.90;;;;;;4915867;29;20103;-85
2022/12/31 06:36:55;;;;;;;5.22;2.15;;;11.00;99.90;;;;;;4917024;29;20044;-85
2022/12/31 06:39:24;;;;;;;3.17;2.30;;;10.90;99.90;;;;;;4913925;29;20072;-85
2022/12/31 06:41:50;;;;;;;3.42;2.30;;;11.30;99.90;;;;;;4914165;29;20466;-85
2022/12/31 06:44:15;;;;;;;3.28;1.35;;;10.90;99.90;;;;;;4910372;29;20079;-86
2022/12/31 06:46:41;;;;;;;6.07;1.60;;;10.90;99.90;;;;;;4914776;29;20052;-85
2022/12/31 06:49:06;;;;;;;2.22;1.13;;;10.90;99.90;;;;;;4911522;29;20044;-85
2022/12/31 06:51:32;;;;;;;2.45;1.70;;;10.90;99.90;;;;;;4915756;29;20040;-85
2022/12/31 06:54:00;;;;;;;4.22;1.70;;;10.90;99.90;;;;;;4890099;29;20131;-85
2022/12/31 06:56:28;;;;;;;5.55;1.63;;;10.90;99.90;;;;;;4932200;29;20181;-85
2022/12/31 06:58:54;;;;;;;3.13;1.42;;;10.80;99.90;;;;;;4917061;29;20180;-85
2022/12/31 07:01:46;;;;;;;1.73;1.50;;;10.80;99.90;;;;;;4919098;29;20048;-85
2022/12/31 07:04:12;;;;;;;4.25;1.90;;;10.80;99.90;;;;;;4931596;29;20060;-85
2022/12/31 07:07:23;;;;;;;2.63;1.50;;;10.90;99.90;;;;;;4922286;29;20055;-85
2022/12/31 07:10:00;;;;;;;2.45;1.58;;;10.80;99.90;;;;;;4920387;29;20055;-85
2022/12/31 07:12:47;;;;;;;2.70;1.35;;;11.60;99.90;;;;;;4918410;29;20080;-85
2022/12/31 07:15:45;;;;;;;3.20;1.70;;;10.80;99.90;;;;;;4915811;29;20096;-85
2022/12/31 07:18:52;;;;;;;2.08;1.80;;;10.80;99.90;;;;;;4915054;29;20040;-85
2022/12/31 07:21:24;;;;;;;;;;;10.80;99.90;;;;;;4895020;29;21912;-85
2022/12/31 07:23:49;;;;;;;2.97;1.58;;;10.80;99.90;;;;;;4896627;29;19927;-85
2022/12/31 07:26:34;;;;;;;2.30;1.63;;;10.80;99.90;;;;;;4916986;29;20058;-85
2022/12/31 07:29:14;;;;;;;2.17;1.60;;;10.80;99.90;;;;;;4916600;29;20036;-84
2022/12/31 07:31:56;;;;;;;1.75;1.42;;;10.80;99.90;;;;;;4916840;29;20071;-85
2022/12/31 07:34:38;;;;;;;1.73;1.27;;;10.80;99.90;;;;;;4902970;29;20036;-86
2022/12/31 07:37:04;;;;;;;2.10;1.70;;;10.80;99.90;;;;;;4916006;29;20050;-85
2022/12/31 07:39:58;;;;;;;3.28;2.10;;;11.70;99.90;;;;;;4915245;29;20032;-85
2022/12/31 07:42:50;;;;;;;2.35;1.55;;;10.60;99.90;;;;;;4916992;29;20040;-85
2022/12/31 07:45:25;;;;;;;2.75;1.50;;;10.80;99.90;;;;;;4903750;29;20060;-85
2022/12/31 07:47:51;;;;;;;1.60;1.30;;;10.80;99.90;;;;;;4929425;29;20071;-85
2022/12/31 07:50:18;;;;;;;1.30;1.20;;;10.90;99.90;;;;;;4902210;29;20804;-84
2022/12/31 07:52:45;;;;;;;1.23;1.00;;;10.90;99.90;;;;;;4931664;29;20103;-85
2022/12/31 07:55:10;;;;;;;1.20;0.85;;;11.00;99.90;;;;;;4918484;29;20118;-85
2022/12/31 08:04:31;;;;;;;1.85;1.15;;;11.10;99.90;;;;;;4920867;29;20052;-88
2022/12/31 08:07:41;;;;;;;1.27;1.17;;;11.00;99.90;;;;;;4914615;29;20036;-88
2022/12/31 08:10:30;;;;;;;2.15;1.50;;;10.90;99.90;;;;;;4911362;29;20035;-88
2022/12/31 08:16:22;;;;;;;2.15;1.95;;;11.20;99.90;;;;;;4913609;29;20084;-84
2022/12/31 08:18:47;;;;;;;2.88;2.33;;;11.10;99.90;;;;;;4916012;29;20044;-83
2022/12/31 08:21:25;;;;;;;3.15;2.40;;;11.10;99.90;;;;;;4915240;29;20044;-87
2022/12/31 08:24:38;;;;;;;2.72;2.53;;;11.20;99.90;;;;;;4911619;29;20055;-86
2022/12/31 08:27:15;;;;;;;2.83;2.53;;;11.20;99.90;;;;;;4914395;29;21227;-85
2022/12/31 08:29:59;;;;;;;2.80;2.60;;;11.20;99.90;;;;;;4911464;29;20046;-85
2022/12/31 08:32:35;;;;;;;2.53;2.33;;;11.30;99.90;;;;;;4912368;29;20087;-86
2022/12/31 08:35:37;;;;;;;4.80;2.58;;;11.30;99.90;;;;;;4913845;29;20055;-88
2022/12/31 08:38:16;;;;;;;3.00;2.70;;;11.30;99.90;;;;;;4915060;29;20674;-88
2022/12/31 08:40:58;;;;;;;3.10;2.72;;;11.30;99.90;;;;;;4909488;29;20129;-87
2022/12/31 08:43:55;;;;;;;3.85;2.83;;;11.40;99.90;;;;;;4914064;29;20395;-87
2022/12/31 08:46:43;;;;;;;3.47;3.15;;;11.40;99.90;;;;;;4909782;29;20036;-85
2022/12/31 08:49:10;;;;;;;3.17;2.88;;;11.50;99.90;;;;;;4931228;29;20052;-86
2022/12/31 08:51:47;;;;;;;2.95;2.75;;;11.60;99.90;;;;;;4917662;29;20036;-86
2022/12/31 08:54:13;;;;;;;2.78;2.40;;;11.60;99.90;;;;;;4920948;29;20050;-86
2022/12/31 08:57:10;;;;;;;3.05;2.75;;;11.70;99.90;;;;;;4914459;29;21092;-86
2022/12/31 09:00:01;;;;;;;2.72;2.45;;;11.70;99.90;;;;;;4889717;29;20414;-87
2022/12/31 09:03:16;;;;;;;2.38;2.15;;;11.80;99.90;;;;;;4891580;29;20044;-87
2022/12/31 09:14:08;;;;;;;2.10;1.92;;;12.10;99.90;;;;;;4849278;29;20052;-88
2022/12/31 09:18:05;;;;;;;1.67;1.27;;;12.20;99.90;;;;;;4855708;29;20105;-88
2022/12/31 09:20:54;;;;;;;1.95;1.10;;;12.50;99.90;;;;;;4841195;29;20853;-87
2022/12/31 09:24:28;;;;;;;2.47;0.90;;;12.30;99.90;;;;;;4850086;29;20057;-85
2022/12/31 09:27:57;;;;;;;1.73;0.57;;;12.40;99.90;;;;;;4806394;29;20134;-87
2022/12/31 09:30:26;;;;;;;1.80;0.82;;;12.40;99.90;;;;;;4828225;29;20115;-86
2022/12/31 09:33:31;;;;;;;1.80;0.52;;;12.50;99.90;;;;;;4836157;29;20061;-87
2022/12/31 09:36:56;;;;;;;1.33;0.60;;;12.60;99.90;;;;;;4777913;29;20100;-87
2022/12/31 09:39:49;;;;;;;1.88;0.40;;;12.70;99.90;;;;;;4750598;29;20055;-91
2022/12/31 09:43:18;;;;;;;1.55;0.30;;;12.60;99.90;;;;;;4831012;29;20123;-89
2022/12/31 09:46:34;;;;;;;1.00;0.30;;;12.70;99.90;;;;;;4858765;29;20081;-88
2022/12/31 09:49:45;;;;;;;3.38;0.30;;;12.70;99.90;;;;;;4876821;29;20048;-88
2022/12/31 10:00:44;;;;;;;1.65;0.22;;;13.10;99.90;;;;;;4892751;29;20091;-87
2022/12/31 11:12:30;;;;;;;6.78;1.45;;;13.50;99.90;;;;;;4905346;29;20035;-86
2022/12/31 11:52:18;;;;;;;3.45;1.10;;;13.30;99.90;;;;;;4926149;29;20048;-87
2022/12/31 12:02:45;;;;;;;3.58;0.88;;;13.40;99.90;;;;;;4884498;29;20522;-88
2022/12/31 12:09:35;;;;;;;5.35;0.88;;;13.50;99.90;;;;;;4865741;29;20080;-87
2022/12/31 12:12:08;;;;;;;4.47;0.90;;;13.40;99.90;;;;;;4845435;29;20121;-87
2022/12/31 12:15:07;;;;;;;4.57;0.57;;;13.00;99.90;;;;;;4861503;29;20184;-87
2022/12/31 12:18:29;;;;;;;5.80;0.80;;;13.50;99.90;;;;;;4871101;29;20054;-87
2022/12/31 12:25:39;;;;;;;6.47;0.77;;;13.70;99.90;;;;;;4793066;29;20498;-88
2022/12/31 12:28:48;;;;;;;4.32;0.63;;;13.70;99.90;;;;;;4794479;29;20053;-89
2022/12/31 12:31:32;;;;;;;4.22;0.93;;;13.80;99.90;;;;;;4849601;29;20755;-84
2022/12/31 12:33:58;;;;;;;2.47;0.60;;;13.90;99.90;;;;;;4840922;29;20520;-85
2022/12/31 12:36:24;;;;;;;5.88;0.90;;;13.90;99.90;;;;;;4855701;29;20055;-86
2022/12/31 12:39:03;;;;;;;1.63;0.50;;;13.90;99.90;;;;;;4838748;29;20791;-85
2022/12/31 12:41:29;;;;;;;2.88;0.47;;;13.90;99.90;;;;;;4884965;29;20062;-84
2022/12/31 12:44:11;;;;;;;3.00;0.60;;;14.30;99.90;;;;;;4902821;29;20522;-85
2022/12/31 12:46:47;;;;;;;3.22;0.70;;;14.00;99.90;;;;;;4907105;29;20040;-85
2022/12/31 12:49:36;;;;;;;6.53;0.82;;;14.10;99.90;;;;;;4908102;29;20036;-84
2022/12/31 12:52:29;;;;;;;5.45;0.50;;;14.00;99.90;;;;;;4909370;29;20039;-85
2022/12/31 12:55:18;;;;;;;2.72;0.40;;;14.00;99.90;;;;;;4927679;29;20792;-85
2022/12/31 12:58:21;;;;;;;3.25;0.47;;;14.10;99.90;;;;;;4905878;29;20472;-86
2022/12/31 13:01:24;;;;;;;5.57;0.98;;;14.00;99.90;;;;;;4889129;29;20064;-86
2022/12/31 13:04:01;;;;;;;3.72;0.70;;;13.90;99.90;;;;;;4892289;29;20380;-84
2022/12/31 13:06:58;;;;;;;3.78;0.70;;;13.90;99.90;;;;;;4907410;29;20044;-86
2022/12/31 13:09:32;;;;;;;3.35;0.68;;;13.90;99.90;;;;;;4908406;29;20119;-85
2022/12/31 13:11:58;;;;;;;3.42;0.50;;;13.90;99.90;;;;;;4912115;29;20048;-88
2022/12/31 13:14:54;;;;;;;4.90;1.25;;;13.90;99.90;;;;;;4902246;29;20972;-87
2022/12/31 13:17:44;;;;;;;2.45;0.50;;;13.80;99.90;;;;;;4910111;29;20044;-86
2022/12/31 13:20:51;;;;;;;6.60;1.02;;;13.80;99.90;;;;;;4911722;29;20360;-85
2022/12/31 13:23:28;;;;;;;6.82;0.90;;;13.70;99.90;;;;;;4907562;29;20040;-84
2022/12/31 13:26:12;;;;;;;5.53;1.48;;;13.60;99.90;;;;;;4910890;29;20059;-86
2022/12/31 13:28:44;;;;;;;2.78;0.50;;;13.60;99.90;;;;;;4907168;29;20483;-85
2022/12/31 13:31:16;;;;;;;7.20;1.15;;;13.50;99.90;;;;;;4911037;29;20067;-84
2022/12/31 13:33:53;;;;;;;6.88;0.80;;;13.60;99.90;;;;;;4903631;29;20496;-85
2022/12/31 13:36:25;;;;;;;5.35;0.40;;;13.40;99.90;;;;;;4901857;29;20072;-85
2022/12/31 13:38:53;;;;;;;7.38;0.75;;;13.30;99.90;;;;;;4908741;29;20040;-85
2022/12/31 13:41:31;;;;;;;9.50;0.50;;;13.30;99.90;;;;;;4925694;28;20260;-86
2022/12/31 13:44:07;;;;;;;2.85;0.43;;;13.30;99.90;;;;;;4908674;29;20559;-85
2022/12/31 13:46:38;;;;;;;2.33;0.50;;;13.20;99.90;;;;;;4909223;29;20052;-85
2022/12/31 13:49:22;;;;;;;5.00;0.73;;;13.20;99.90;;;;;;4893436;29;20055;-90
2022/12/31 13:51:50;;;;;;;5.57;0.70;;;13.10;99.90;;;;;;4907840;29;20491;-87
2022/12/31 13:54:41;;;;;;;3.28;0.40;;;13.40;99.90;;;;;;4907077;29;20060;-83
2022/12/31 13:57:35;;;;;;;4.70;0.45;;;13.10;99.90;;;;;;4909583;29;20084;-85
2022/12/31 14:00:05;;;;;;;1.55;0.20;;;13.10;99.90;;;;;;4906864;29;20099;-85
2022/12/31 14:02:36;;;;;;;2.50;0.30;;;13.10;99.90;;;;;;4910821;29;20036;-86
2022/12/31 14:05:29;;;;;;;1.38;0.30;;;13.20;99.90;;;;;;4915121;29;20051;-84
2022/12/31 14:08:00;;;;;;;2.78;0.47;;;13.20;99.90;;;;;;4896207;29;20403;-84
2022/12/31 14:10:53;;;;;;;3.38;0.55;;;13.40;99.90;;;;;;4910185;29;21816;-85
2022/12/31 14:13:41;;;;;;;1.13;0.50;;;13.20;99.90;;;;;;4893899;29;20415;-84
2022/12/31 14:16:22;;;;;;;1.75;0.50;;;13.20;99.90;;;;;;4910551;29;20036;-85
2022/12/31 14:19:26;;;;;;;1.00;0.30;;;13.20;99.90;;;;;;4910125;29;20040;-86
2022/12/31 14:22:06;;;;;;;0.68;0.20;;;13.30;99.90;;;;;;4908406;29;20051;-85
2022/12/31 14:24:41;;;;;;;1.58;0.30;;;13.50;99.90;;;;;;4893151;29;20076;-87
2022/12/31 14:27:14;;;;;;;1.10;0.25;;;13.40;99.90;;;;;;4913876;29;20402;-85
2022/12/31 14:29:48;;;;;;;1.15;0.40;;;13.30;99.90;;;;;;4911770;29;20044;-86
2022/12/31 14:32:46;;;;;;;2.28;0.30;;;13.40;99.90;;;;;;4909716;29;20538;-89
2022/12/31 14:35:36;;;;;;;3.63;0.82;;;13.60;99.90;;;;;;4911427;29;20044;-86
2022/12/31 14:38:08;;;;;;;3.63;0.80;;;13.50;99.90;;;;;;4912328;29;20039;-84
2022/12/31 14:40:47;;;;;;;4.43;1.10;;;13.50;99.90;;;;;;4911084;29;20111;-85
2022/12/31 14:43:37;;;;;;;1.55;0.30;;;13.60;99.90;;;;;;4892846;29;20045;-85
2022/12/31 14:46:23;;;;;;;2.10;0.30;;;13.60;99.90;;;;;;4908900;29;20139;-84
2022/12/31 14:49:05;;;;;;;2.28;0.60;;;13.60;99.90;;;;;;4909446;29;20431;-83
2022/12/31 14:51:34;;;;;;;2.23;0.70;;;13.60;99.90;;;;;;4913111;29;20047;-83
2022/12/31 14:54:00;;;;;;;5.53;1.10;;;13.70;99.90;;;;;;4909814;29;20590;-85
2022/12/31 14:56:43;;;;;;;4.10;1.10;;;13.60;99.90;;;;;;4913919;29;20152;-85
2022/12/31 15:03:51;;;;;;;;;;;13.80;99.90;;;;;;4858944;29;21368;-88
2022/12/31 15:06:54;;;;;;;6.38;1.75;;;13.80;99.90;;;;;;4838042;29;19964;-87
2022/12/31 15:09:50;;;;;;;5.50;1.70;;;13.80;99.90;;;;;;4839140;29;20173;-87
2022/12/31 15:12:38;;;;;;;4.78;1.83;;;14.20;99.90;;;;;;4850779;29;20041;-86
2022/12/31 15:15:31;;;;;;;7.88;2.88;;;13.80;99.90;;;;;;4901921;29;20127;-87
2022/12/31 15:17:57;;;;;;;9.40;2.17;;;13.80;99.90;;;;;;4906600;29;20036;-86
2022/12/31 15:20:50;;;;;;;5.32;2.20;;;14.50;99.90;;;;;;4909970;29;20067;-87
2022/12/31 15:23:19;;;;;;;5.15;2.20;;;13.70;99.90;;;;;;4907092;29;20845;-87
2022/12/31 15:25:59;;;;;;;4.18;1.77;;;13.90;99.90;;;;;;4912346;29;20052;-86
2022/12/31 15:28:39;;;;;;;5.10;1.90;;;13.80;99.90;;;;;;4911455;29;20047;-86
2022/12/31 15:31:15;;;;;;;4.60;1.80;;;13.90;99.90;;;;;;4906996;29;20044;-86
2022/12/31 15:33:59;;;;;;;7.43;1.95;;;14.00;99.90;;;;;;4912067;29;20082;-87
2022/12/31 15:36:29;;;;;;;5.10;1.92;;;13.80;99.90;;;;;;4905509;29;20137;-87
2022/12/31 15:39:24;;;;;;;3.97;1.50;;;13.80;99.90;;;;;;4906200;29;20047;-85
2022/12/31 15:41:52;;;;;;;2.80;1.10;;;13.70;99.90;;;;;;4909747;29;20047;-84
2022/12/31 15:45:09;;;;;;;3.50;1.25;;;14.20;99.90;;;;;;4892921;29;20063;-84
2022/12/31 15:47:44;;;;;;;3.38;0.90;;;13.70;99.90;;;;;;4907577;29;20058;-82
2022/12/31 15:50:29;;;;;;;4.53;1.10;;;13.70;99.90;;;;;;4905378;29;20060;-81
2022/12/31 15:52:57;;;;;;;2.50;1.30;;;13.70;99.90;;;;;;4908097;29;20490;-86
2022/12/31 15:55:48;;;;;;;3.92;1.50;;;14.40;99.90;;;;;;4910947;29;20048;-82
2022/12/31 15:58:21;;;;;;;3.70;1.15;;;13.70;99.90;;;;;;4906920;29;20051;-81
2022/12/31 16:00:52;;;;;;;4.50;1.15;;;13.70;99.90;;;;;;4910628;29;20127;-83
2022/12/31 16:03:26;;;;;;;4.45;1.73;;;13.70;99.90;;;;;;4894026;29;20043;-82
2022/12/31 16:05:59;;;;;;;3.67;1.45;;;13.60;99.90;;;;;;4898629;29;20048;-84
2022/12/31 16:08:30;;;;;;;5.45;1.23;;;13.70;99.90;;;;;;4902257;29;20427;-83
2022/12/31 16:10:58;;;;;;;5.07;1.38;;;13.60;99.90;;;;;;4908812;29;20052;-83
2022/12/31 16:13:25;;;;;;;3.83;1.67;;;13.80;99.90;;;;;;4892641;29;20743;-84
2022/12/31 16:16:09;;;;;;;4.43;1.10;;;13.60;99.90;;;;;;4911419;29;20665;-85